createdAt,value
2018-09-14T00:00:38.560Z,11.22
2018-09-14T00:03:08.225Z,11.20
2018-09-14T00:05:37.265Z,11.15
2018-09-14T00:08:06.018Z,11.14
2018-09-14T00:10:34.764Z,11.14
2018-09-14T00:13:03.474Z,11.13
2018-09-14T00:15:32.558Z,11.07
2018-09-14T00:18:01.638Z,11.01
2018-09-14T00:20:30.559Z,10.96
2018-09-14T00:22:59.324Z,10.91
2018-09-14T00:25:28.515Z,10.89
2018-09-14T00:27:57.296Z,10.85
2018-09-14T00:30:26.718Z,10.85
2018-09-14T00:32:55.678Z,10.82
2018-09-14T00:35:24.492Z,10.81
2018-09-14T00:37:53.261Z,10.78
2018-09-14T00:40:22.348Z,10.76
2018-09-14T00:42:51.116Z,10.72
2018-09-14T00:45:20.226Z,10.71
2018-09-14T00:47:48.941Z,10.70
2018-09-14T00:50:17.889Z,10.67
2018-09-14T00:52:46.681Z,10.62
2018-09-14T00:55:16.114Z,10.54
2018-09-14T00:57:45.436Z,10.48
2018-09-14T01:00:14.151Z,10.39
2018-09-14T01:02:43.470Z,10.34
2018-09-14T01:05:12.806Z,10.28
2018-09-14T01:07:41.959Z,10.20
2018-09-14T01:10:10.948Z,10.18
2018-09-14T01:12:40.215Z,10.15
2018-09-14T01:15:09.022Z,10.17
2018-09-14T01:17:37.797Z,10.18
2018-09-14T01:20:07.087Z,10.20
2018-09-14T01:22:36.377Z,10.21
2018-09-14T01:25:05.123Z,10.24
2018-09-14T01:27:34.282Z,10.25
2018-09-14T01:30:03.328Z,10.26
2018-09-14T01:32:32.781Z,10.24
2018-09-14T01:35:01.876Z,10.23
2018-09-14T01:37:30.940Z,10.21
2018-09-14T01:39:59.974Z,10.19
2018-09-14T01:42:28.758Z,10.16
2018-09-14T01:44:58.113Z,10.15
2018-09-14T01:47:27.231Z,10.13
2018-09-14T01:49:55.977Z,10.12
2018-09-14T01:52:25.043Z,10.08
2018-09-14T01:54:54.181Z,10.06
2018-09-14T01:57:22.958Z,10.02
2018-09-14T01:59:51.750Z,9.99
2018-09-14T02:02:20.922Z,9.96
2018-09-14T02:04:51.106Z,9.93
2018-09-14T02:07:20.183Z,9.91
2018-09-14T02:09:49.254Z,9.89
2018-09-14T02:12:18.535Z,9.88
2018-09-14T02:14:47.894Z,9.87
2018-09-14T02:17:16.970Z,9.85
2018-09-14T02:19:45.998Z,9.83
2018-09-14T02:22:15.259Z,9.82
2018-09-14T02:24:44.250Z,9.80
2018-09-14T02:27:13.149Z,9.76
2018-09-14T02:29:42.630Z,9.75
2018-09-14T02:32:11.356Z,9.73
2018-09-14T02:34:40.138Z,9.72
2018-09-14T02:37:09.168Z,9.72
2018-09-14T02:39:38.212Z,9.68
2018-09-14T02:42:07.235Z,9.66
2018-09-14T02:44:36.098Z,9.63
2018-09-14T02:47:07.931Z,9.61
2018-09-14T02:49:37.282Z,9.58
2018-09-14T02:52:06.026Z,9.56
2018-09-14T02:54:35.046Z,9.53
2018-09-14T02:57:04.498Z,9.47
2018-09-14T02:59:34.539Z,9.42
2018-09-14T03:02:03.335Z,9.37
2018-09-14T03:04:32.253Z,9.36
2018-09-14T03:07:01.683Z,9.35
2018-09-14T03:09:30.772Z,9.33
2018-09-14T03:11:59.964Z,9.35
2018-09-14T03:14:29.331Z,9.35
2018-09-14T03:16:58.237Z,9.35
2018-09-14T03:19:26.976Z,9.33
2018-09-14T03:21:55.718Z,9.31
2018-09-14T03:24:24.468Z,9.27
2018-09-14T03:26:53.716Z,9.23
2018-09-14T03:29:22.838Z,9.22
2018-09-14T03:31:52.343Z,9.20
2018-09-14T03:34:21.091Z,9.15
2018-09-14T03:36:50.077Z,9.13
2018-09-14T03:39:18.823Z,9.12
2018-09-14T03:41:48.161Z,9.11
2018-09-14T03:44:16.878Z,9.09
2018-09-14T03:46:45.605Z,9.07
2018-09-14T03:49:14.394Z,9.05
2018-09-14T03:51:43.326Z,9.03
2018-09-14T03:54:12.070Z,9.03
2018-09-14T03:56:40.811Z,9.02
2018-09-14T03:59:09.522Z,9.01
2018-09-14T04:01:38.296Z,9.01
2018-09-14T04:04:07.303Z,8.99
2018-09-14T04:06:37.065Z,8.99
2018-09-14T04:09:08.230Z,8.97
2018-09-14T04:11:37.328Z,8.94
2018-09-14T04:14:06.183Z,8.91
2018-09-14T04:16:34.930Z,8.89
2018-09-14T04:19:05.138Z,8.87
2018-09-14T04:21:36.043Z,8.86
2018-09-14T04:24:05.314Z,8.84
2018-09-14T04:26:34.048Z,8.83
2018-09-14T04:29:02.874Z,8.83
2018-09-14T04:31:31.971Z,8.80
2018-09-14T04:34:00.968Z,8.80
2018-09-14T04:36:29.992Z,8.79
2018-09-14T04:38:58.734Z,8.81
2018-09-14T04:41:27.510Z,8.80
2018-09-14T04:43:56.609Z,8.79
2018-09-14T04:46:25.326Z,8.77
2018-09-14T04:48:54.097Z,8.77
2018-09-14T04:51:22.895Z,8.75
2018-09-14T04:53:51.577Z,8.73
2018-09-14T04:56:20.982Z,8.73
2018-09-14T04:58:49.819Z,8.73
2018-09-14T05:01:18.529Z,8.72
2018-09-14T05:03:47.263Z,8.70
2018-09-14T05:06:16.548Z,8.69
2018-09-14T05:08:45.293Z,8.68
2018-09-14T05:11:14.420Z,8.69
2018-09-14T05:13:43.150Z,8.67
2018-09-14T05:16:12.257Z,8.69
2018-09-14T05:18:41.058Z,8.70
2018-09-14T05:21:09.972Z,8.69
2018-09-14T05:23:39.276Z,8.67
2018-09-14T05:26:08.689Z,8.68
2018-09-14T05:28:37.464Z,8.67
2018-09-14T05:31:06.545Z,8.68
2018-09-14T05:33:36.193Z,8.68
2018-09-14T05:36:05.318Z,8.69
2018-09-14T05:38:35.537Z,8.70
2018-09-14T05:41:04.305Z,8.72
2018-09-14T05:43:33.074Z,8.74
2018-09-14T05:46:02.019Z,8.76
2018-09-14T05:48:31.075Z,8.78
2018-09-14T05:51:00.159Z,8.78
2018-09-14T05:53:28.948Z,8.77
2018-09-14T05:55:58.527Z,8.76
2018-09-14T05:58:27.998Z,8.76
2018-09-14T06:00:57.195Z,8.77
2018-09-14T06:03:26.611Z,8.83
2018-09-14T06:05:56.440Z,8.88
2018-09-14T06:08:25.545Z,8.91
2018-09-14T06:10:54.270Z,8.94
2018-09-14T06:13:23.064Z,9.01
2018-09-14T06:15:53.534Z,9.06
2018-09-14T06:18:22.515Z,9.14
2018-09-14T06:20:51.665Z,9.22
2018-09-14T06:23:20.527Z,9.28
2018-09-14T06:25:49.233Z,9.36
2018-09-14T06:28:18.029Z,9.45
2018-09-14T06:30:46.792Z,9.55
2018-09-14T06:33:15.852Z,9.64
2018-09-14T06:35:45.594Z,9.80
2018-09-14T06:38:14.438Z,9.93
2018-09-14T06:40:43.161Z,10.06
2018-09-14T06:43:12.516Z,10.22
2018-09-14T06:45:42.611Z,10.37
2018-09-14T06:48:11.346Z,10.54
2018-09-14T06:50:40.425Z,10.70
2018-09-14T06:53:10.003Z,10.85
2018-09-14T06:55:39.060Z,11.02
2018-09-14T06:58:08.116Z,11.19
2018-09-14T07:00:36.842Z,11.38
2018-09-14T07:03:05.888Z,11.54
2018-09-14T07:05:34.686Z,11.69
2018-09-14T07:08:03.430Z,11.83
2018-09-14T07:10:32.165Z,11.99
2018-09-14T07:13:01.275Z,12.12
2018-09-14T07:15:30.047Z,12.26
2018-09-14T07:17:58.814Z,12.40
2018-09-14T07:20:27.560Z,12.53
2018-09-14T07:22:56.659Z,12.65
2018-09-14T07:25:25.618Z,12.78
2018-09-14T07:27:54.925Z,12.94
2018-09-14T07:30:23.770Z,13.08
2018-09-14T07:32:52.746Z,13.21
2018-09-14T07:35:21.757Z,13.36
2018-09-14T07:37:50.455Z,13.49
2018-09-14T07:40:19.788Z,13.64
2018-09-14T07:42:48.834Z,13.81
2018-09-14T07:45:17.564Z,13.95
2018-09-14T07:47:46.294Z,14.09
2018-09-14T07:50:15.042Z,14.21
2018-09-14T07:52:44.014Z,14.35
2018-09-14T07:55:12.821Z,14.48
2018-09-14T07:57:41.884Z,14.61
2018-09-14T08:00:11.099Z,14.76
2018-09-14T08:02:40.677Z,14.93
2018-09-14T08:05:09.676Z,15.08
2018-09-14T08:07:38.406Z,15.24
2018-09-14T08:10:07.446Z,15.37
2018-09-14T08:12:36.758Z,15.51
2018-09-14T08:15:05.908Z,15.72
2018-09-14T08:17:34.843Z,15.91
2018-09-14T08:20:04.148Z,16.08
2018-09-14T08:22:32.987Z,16.24
2018-09-14T08:25:01.775Z,16.38
2018-09-14T08:27:30.533Z,16.52
2018-09-14T08:29:59.508Z,16.65
2018-09-14T08:32:28.326Z,16.82
2018-09-14T08:34:57.063Z,16.91
2018-09-14T08:37:26.104Z,17.02
2018-09-14T08:39:58.352Z,17.17
2018-09-14T08:42:29.081Z,17.30
2018-09-14T08:44:59.812Z,17.39
2018-09-14T08:47:31.654Z,17.45
2018-09-14T08:50:03.593Z,17.61
2018-09-14T08:52:35.311Z,17.79
2018-09-14T08:55:04.119Z,17.92
2018-09-14T08:57:33.393Z,18.02
2018-09-14T09:00:02.161Z,18.07
2018-09-14T09:02:31.404Z,18.16
2018-09-14T09:05:00.396Z,18.28
2018-09-14T09:07:29.129Z,18.40
2018-09-14T09:09:57.831Z,18.52
2018-09-14T09:12:26.878Z,18.63
2018-09-14T09:14:55.848Z,18.72
2018-09-14T09:17:24.554Z,18.78
2018-09-14T09:19:53.582Z,18.84
2018-09-14T09:22:22.590Z,18.94
2018-09-14T09:24:51.291Z,19.00
2018-09-14T09:27:20.308Z,19.08
2018-09-14T09:29:49.279Z,19.16
2018-09-14T09:32:18.311Z,19.27
2018-09-14T09:34:47.326Z,19.44
2018-09-14T09:37:16.787Z,19.53
2018-09-14T09:39:45.481Z,19.59
2018-09-14T09:42:15.410Z,19.65
2018-09-14T09:44:44.132Z,19.74
2018-09-14T09:47:13.212Z,19.98
2018-09-14T09:49:41.846Z,20.14
2018-09-14T09:52:11.086Z,20.22
2018-09-14T09:54:40.484Z,20.25
2018-09-14T09:57:09.474Z,20.30
2018-09-14T09:59:38.939Z,20.37
2018-09-14T10:02:13.012Z,20.45
2018-09-14T10:04:46.797Z,20.62
2018-09-14T10:07:16.625Z,20.71
2018-09-14T10:09:45.704Z,20.77
2018-09-14T10:12:14.709Z,20.86
2018-09-14T10:14:43.689Z,20.92
2018-09-14T10:17:12.983Z,21.08
2018-09-14T10:19:41.756Z,21.22
2018-09-14T10:22:10.500Z,21.32
2018-09-14T10:24:39.581Z,21.50
2018-09-14T10:27:08.600Z,21.67
2018-09-14T10:29:37.307Z,21.73
2018-09-14T10:32:06.118Z,21.78
2018-09-14T10:34:34.828Z,21.91
2018-09-14T10:37:04.136Z,22.11
2018-09-14T10:39:33.188Z,22.04
2018-09-14T10:42:02.309Z,22.20
2018-09-14T10:44:31.289Z,22.36
2018-09-14T10:47:00.084Z,22.44
2018-09-14T10:49:28.803Z,22.52
2018-09-14T10:51:57.976Z,22.63
2018-09-14T10:54:27.174Z,22.81
2018-09-14T10:56:56.305Z,22.99
2018-09-14T10:59:25.623Z,23.05
2018-09-14T11:01:54.876Z,23.24
2018-09-14T11:04:24.158Z,23.46
2018-09-14T11:06:52.879Z,23.60
2018-09-14T11:09:21.878Z,23.62
2018-09-14T11:11:51.258Z,23.66
2018-09-14T11:14:20.061Z,23.81
2018-09-14T11:16:49.152Z,23.76
2018-09-14T11:19:17.978Z,23.76
2018-09-14T11:21:47.588Z,23.68
2018-09-14T11:24:17.144Z,23.84
2018-09-14T11:26:46.337Z,24.00
2018-09-14T11:29:15.307Z,24.09
2018-09-14T11:31:44.564Z,24.28
2018-09-14T11:34:13.285Z,24.49
2018-09-14T11:36:42.339Z,24.68
2018-09-14T11:39:11.570Z,24.51
2018-09-14T11:41:40.772Z,24.24
2018-09-14T11:44:09.539Z,24.25
2018-09-14T11:46:38.815Z,24.32
2018-09-14T11:49:07.906Z,24.53
2018-09-14T11:51:36.945Z,24.62
2018-09-14T11:54:06.773Z,24.87
2018-09-14T11:56:35.854Z,24.99
2018-09-14T11:59:04.548Z,25.05
2018-09-14T12:01:33.711Z,25.14
2018-09-14T12:04:02.803Z,25.17
2018-09-14T12:06:32.174Z,25.26
2018-09-14T12:09:01.181Z,25.36
2018-09-14T12:11:30.519Z,25.17
2018-09-14T12:13:59.251Z,25.13
2018-09-14T12:16:28.993Z,24.78
2018-09-14T12:18:57.955Z,24.73
2018-09-14T12:21:26.695Z,24.52
2018-09-14T12:23:55.419Z,24.38
2018-09-14T12:26:24.150Z,24.15
2018-09-14T12:28:53.169Z,24.06
2018-09-14T12:31:22.282Z,24.08
2018-09-14T12:33:51.693Z,24.22
2018-09-14T12:36:20.570Z,24.30
2018-09-14T12:38:49.359Z,24.31
2018-09-14T12:41:18.402Z,24.50
2018-09-14T12:43:47.417Z,24.80
2018-09-14T12:46:16.102Z,25.13
2018-09-14T12:48:45.721Z,25.30
2018-09-14T12:51:15.012Z,25.40
2018-09-14T12:53:44.538Z,25.64
2018-09-14T12:56:13.291Z,25.83
2018-09-14T12:58:42.279Z,26.03
2018-09-14T13:01:11.036Z,26.35
2018-09-14T13:03:39.802Z,26.33
2018-09-14T13:06:08.515Z,26.17
2018-09-14T13:08:37.710Z,26.21
2018-09-14T13:11:06.760Z,26.03
2018-09-14T13:13:35.461Z,25.95
2018-09-14T13:16:04.570Z,26.12
2018-09-14T13:18:33.493Z,26.43
2018-09-14T13:21:02.223Z,26.71
2018-09-14T13:23:37.302Z,26.94
2018-09-14T13:26:06.336Z,26.90
2018-09-14T13:28:35.563Z,26.88
2018-09-14T13:31:04.622Z,26.83
2018-09-14T13:33:33.353Z,26.97
2018-09-14T13:36:02.711Z,26.97
2018-09-14T13:38:31.790Z,26.98
2018-09-14T13:41:00.510Z,26.87
2018-09-14T13:43:29.619Z,26.81
2018-09-14T13:45:58.707Z,26.76
2018-09-14T13:48:27.394Z,26.72
2018-09-14T13:50:57.229Z,26.78
2018-09-14T13:53:26.381Z,26.64
2018-09-14T13:55:55.223Z,26.50
2018-09-14T13:58:24.215Z,26.32
2018-09-14T14:00:53.306Z,26.30
2018-09-14T14:03:22.378Z,26.17
2018-09-14T14:05:51.079Z,26.12
2018-09-14T14:08:19.832Z,25.99
2018-09-14T14:10:49.134Z,25.94
2018-09-14T14:13:17.860Z,26.04
2018-09-14T14:15:46.821Z,25.81
2018-09-14T14:18:15.792Z,25.60
2018-09-14T14:20:44.812Z,25.35
2018-09-14T14:23:13.662Z,25.44
2018-09-14T14:25:42.833Z,25.48
2018-09-14T14:28:12.369Z,25.49
2018-09-14T14:30:41.446Z,25.36
2018-09-14T14:33:10.503Z,25.33
2018-09-14T14:35:39.544Z,25.45
2018-09-14T14:38:09.031Z,25.48
2018-09-14T14:40:37.777Z,25.17
2018-09-14T14:43:06.586Z,24.92
2018-09-14T14:45:35.614Z,24.60
2018-09-14T14:48:04.364Z,24.29
2018-09-14T14:50:33.362Z,24.09
2018-09-14T14:53:02.434Z,23.98
2018-09-14T14:55:31.541Z,23.98
2018-09-14T14:58:00.766Z,24.00
2018-09-14T15:00:29.941Z,24.09
2018-09-14T15:02:58.657Z,24.23
2018-09-14T15:05:27.707Z,24.29
2018-09-14T15:07:56.873Z,24.23
2018-09-14T15:10:26.205Z,23.97
2018-09-14T15:12:55.489Z,23.92
2018-09-14T15:15:24.287Z,23.66
2018-09-14T15:17:53.061Z,23.49
2018-09-14T15:20:21.849Z,23.53
2018-09-14T15:22:50.758Z,23.63
2018-09-14T15:25:19.767Z,23.76
2018-09-14T15:27:48.551Z,23.87
2018-09-14T15:30:17.565Z,23.72
2018-09-14T15:32:46.602Z,23.67
2018-09-14T15:35:15.321Z,23.36
2018-09-14T15:37:44.371Z,23.14
2018-09-14T15:40:13.417Z,23.03
2018-09-14T15:42:42.436Z,23.01
2018-09-14T15:45:11.178Z,22.99
2018-09-14T15:47:40.189Z,22.94
2018-09-14T15:50:08.922Z,22.91
2018-09-14T15:52:37.915Z,22.82
2018-09-14T15:55:06.914Z,22.78
2018-09-14T15:57:36.036Z,22.79
2018-09-14T16:00:05.313Z,22.84
2018-09-14T16:02:34.742Z,22.79
2018-09-14T16:05:03.498Z,22.65
2018-09-14T16:07:32.556Z,22.54
2018-09-14T16:10:01.349Z,22.38
2018-09-14T16:12:30.330Z,22.25
2018-09-14T16:14:59.307Z,22.17
2018-09-14T16:17:28.154Z,22.12
2018-09-14T16:19:57.216Z,22.01
2018-09-14T16:22:25.918Z,21.93
2018-09-14T16:24:54.646Z,21.89
2018-09-14T16:27:23.367Z,21.82
2018-09-14T16:29:53.152Z,21.75
2018-09-14T16:32:22.231Z,21.62
2018-09-14T16:34:50.946Z,21.53
2018-09-14T16:37:19.835Z,21.47
2018-09-14T16:39:48.560Z,21.39
2018-09-14T16:42:17.913Z,21.36
2018-09-14T16:44:46.679Z,21.29
2018-09-14T16:47:15.366Z,21.25
2018-09-14T16:49:44.107Z,21.21
2018-09-14T16:52:13.094Z,21.13
2018-09-14T16:54:41.853Z,20.87
2018-09-14T16:57:10.611Z,20.68
2018-09-14T16:59:39.327Z,20.45
2018-09-14T17:02:08.468Z,20.30
2018-09-14T17:04:37.299Z,20.17
2018-09-14T17:07:09.970Z,20.03
2018-09-14T17:09:39.311Z,19.86
2018-09-14T17:12:09.713Z,19.67
2018-09-14T17:14:39.280Z,19.60
2018-09-14T17:17:08.455Z,19.56
2018-09-14T17:19:37.375Z,19.46
2018-09-14T17:22:06.690Z,19.41
2018-09-14T17:24:35.726Z,19.36
2018-09-14T17:27:06.152Z,19.31
2018-09-14T17:29:36.547Z,19.28
2018-09-14T17:32:06.791Z,19.24
2018-09-14T17:34:36.911Z,19.22
2018-09-14T17:37:11.920Z,19.21
2018-09-14T17:39:41.052Z,19.17
2018-09-14T17:42:10.129Z,19.11
2018-09-14T17:44:38.944Z,19.08
2018-09-14T17:47:08.236Z,19.03
2018-09-14T17:49:37.405Z,19.03
2018-09-14T17:52:09.167Z,18.97
2018-09-14T17:54:38.620Z,18.93
2018-09-14T17:57:08.001Z,18.92
2018-09-14T17:59:36.852Z,18.92
2018-09-14T18:02:06.055Z,18.92
2018-09-14T18:04:34.918Z,18.90
2018-09-14T18:07:03.912Z,18.87
2018-09-14T18:09:32.951Z,18.90
2018-09-14T18:12:01.714Z,18.91
2018-09-14T18:14:30.906Z,18.91
2018-09-14T18:17:01.094Z,18.91
2018-09-14T18:19:31.261Z,18.87
2018-09-14T18:22:00.913Z,18.84
2018-09-14T18:24:29.935Z,18.82
2018-09-14T18:26:58.642Z,18.74
2018-09-14T18:29:27.474Z,18.66
2018-09-14T18:31:56.527Z,18.60
2018-09-14T18:34:25.542Z,18.55
2018-09-14T18:36:54.400Z,18.53
2018-09-14T18:39:23.454Z,18.51
2018-09-14T18:41:52.228Z,18.51
2018-09-14T18:44:21.154Z,18.46
2018-09-14T18:46:50.707Z,18.43
2018-09-14T18:49:19.946Z,18.40
2018-09-14T18:51:48.987Z,18.34
2018-09-14T18:54:18.776Z,18.28
2018-09-14T18:56:47.941Z,18.23
2018-09-14T18:59:16.727Z,18.18
2018-09-14T19:01:45.802Z,18.10
2018-09-14T19:04:14.889Z,18.02
2018-09-14T19:06:44.053Z,17.99
2018-09-14T19:09:13.474Z,17.97
2018-09-14T19:11:42.483Z,17.94
2018-09-14T19:14:11.918Z,17.91
2018-09-14T19:16:40.633Z,17.86
2018-09-14T19:19:09.465Z,17.81
2018-09-14T19:21:38.573Z,17.77
2018-09-14T19:24:07.340Z,17.73
2018-09-14T19:26:36.566Z,17.68
2018-09-14T19:29:05.605Z,17.68
2018-09-14T19:31:34.966Z,17.68
2018-09-14T19:34:04.038Z,17.65
2018-09-14T19:36:33.159Z,17.63
2018-09-14T19:39:02.732Z,17.56
2018-09-14T19:41:32.007Z,17.55
2018-09-14T19:44:01.118Z,17.56
2018-09-14T19:46:30.429Z,17.54
2018-09-14T19:48:59.685Z,17.48
2018-09-14T19:51:28.479Z,17.46
2018-09-14T19:53:57.359Z,17.44
2018-09-14T19:56:26.234Z,17.40
2018-09-14T19:58:55.027Z,17.33
2018-09-14T20:01:24.338Z,17.30
2018-09-14T20:03:54.065Z,17.30
2018-09-14T20:06:22.911Z,17.29
2018-09-14T20:08:52.162Z,17.28
2018-09-14T20:11:22.076Z,17.25
2018-09-14T20:13:51.190Z,17.20
2018-09-14T20:16:20.424Z,17.17
2018-09-14T20:18:52.567Z,17.12
2018-09-14T20:21:22.093Z,17.02
2018-09-14T20:23:52.094Z,16.96
2018-09-14T20:26:20.900Z,16.86
2018-09-14T20:28:52.301Z,16.75
2018-09-14T20:31:21.668Z,16.69
2018-09-14T20:33:51.218Z,16.64
2018-09-14T20:36:23.568Z,16.58
2018-09-14T20:38:53.312Z,16.54
2018-09-14T20:41:23.641Z,16.49
2018-09-14T20:43:54.670Z,16.39
2018-09-14T20:46:25.469Z,16.31
2018-09-14T20:48:57.631Z,16.23
2018-09-14T20:51:27.695Z,16.14
2018-09-14T20:53:57.510Z,16.08
2018-09-14T20:56:26.374Z,16.06
2018-09-14T20:58:55.581Z,16.05
2018-09-14T21:01:25.451Z,16.05
2018-09-14T21:03:54.567Z,16.02
2018-09-14T21:06:23.807Z,16.02
2018-09-14T21:08:52.701Z,16.01
2018-09-14T21:11:21.645Z,16.01
2018-09-14T21:13:50.506Z,16.01
2018-09-14T21:16:19.253Z,15.99
2018-09-14T21:18:48.083Z,16.01
2018-09-14T21:21:17.382Z,16.00
2018-09-14T21:23:46.206Z,15.95
2018-09-14T21:26:15.770Z,15.88
2018-09-14T21:28:45.440Z,15.83
2018-09-14T21:31:22.380Z,15.75
2018-09-14T21:33:51.535Z,15.71
2018-09-14T21:36:21.295Z,15.67
2018-09-14T21:38:52.557Z,15.67
2018-09-14T21:41:21.498Z,15.63
2018-09-14T21:43:50.875Z,15.59
2018-09-14T21:46:23.227Z,15.53
2018-09-14T21:48:58.831Z,15.42
2018-09-14T21:51:28.239Z,15.35
2018-09-14T21:53:58.307Z,15.32
2018-09-14T21:56:27.238Z,15.26
2018-09-14T21:58:59.847Z,15.21
2018-09-14T22:01:29.906Z,15.11
2018-09-14T22:03:59.953Z,15.08
2018-09-14T22:06:30.015Z,15.03
2018-09-14T22:09:00.009Z,15.03
2018-09-14T22:11:31.318Z,15.01
2018-09-14T22:14:00.665Z,15.00
2018-09-14T22:16:29.466Z,14.97
2018-09-14T22:18:59.239Z,14.92
2018-09-14T22:21:34.390Z,14.85
2018-09-14T22:24:03.565Z,14.82
2018-09-14T22:26:44.289Z,14.77
2018-09-14T22:29:13.500Z,14.73
2018-09-14T22:31:42.259Z,14.68
2018-09-14T22:34:11.123Z,14.65
2018-09-14T22:36:40.438Z,14.60
2018-09-14T22:39:11.134Z,14.57
2018-09-14T22:41:40.225Z,14.52
2018-09-14T22:44:09.041Z,14.48
2018-09-14T22:46:37.783Z,14.47
2018-09-14T22:49:06.861Z,14.40
2018-09-14T22:51:35.773Z,14.34
2018-09-14T22:54:04.485Z,14.29
2018-09-14T22:56:33.313Z,14.22
2018-09-14T22:59:02.155Z,14.18
2018-09-14T23:01:31.496Z,14.14
2018-09-14T23:04:00.625Z,14.13
2018-09-14T23:06:29.787Z,14.11
2018-09-14T23:08:59.272Z,14.08
2018-09-14T23:11:27.948Z,14.08
2018-09-14T23:13:57.230Z,14.06
2018-09-14T23:16:26.000Z,14.02
2018-09-14T23:18:55.056Z,13.98
2018-09-14T23:21:25.120Z,13.92
2018-09-14T23:23:54.828Z,13.90
2018-09-14T23:26:25.699Z,13.88
2018-09-14T23:28:55.726Z,13.84
2018-09-14T23:31:25.963Z,13.81
2018-09-14T23:33:54.689Z,13.79
2018-09-14T23:36:23.426Z,13.75
2018-09-14T23:38:52.249Z,13.72
2018-09-14T23:41:21.246Z,13.70
2018-09-14T23:43:50.256Z,13.67
2018-09-14T23:46:19.248Z,13.64
2018-09-14T23:48:48.519Z,13.63
2018-09-14T23:51:17.547Z,13.61
2018-09-14T23:53:46.257Z,13.58
2018-09-14T23:56:15.410Z,13.57
2018-09-14T23:58:44.173Z,13.54
